CDT,Max TemperatureF,Mean TemperatureF,Min TemperatureF,Max Dew PointF,MeanDew PointF,Min DewpointF,Max Humidity, Mean Humidity, Min Humidity, Max Sea Level PressureIn, Mean Sea Level PressureIn, Min Sea Level PressureIn, Max VisibilityMiles, Mean VisibilityMiles, Min VisibilityMiles, Max Wind SpeedMPH, Mean Wind SpeedMPH, Max Gust SpeedMPH,PrecipitationIn, CloudCover, Events, WindDirDegrees
2011-10-1,68,60,51,46,43,37,82,60,35,30.25,30.18,30.08,10,10,10,15,5,,0.00,0,,7
2011-10-2,71,56,42,45,41,32,100,65,25,30.30,30.23,30.20,10,10,10,10,2,,0.00,0,,7
2011-10-3,78,58,39,54,44,39,100,66,27,30.30,30.24,30.20,10,10,10,7,1,,0.00,0,,318
2011-10-4,82,63,44,54,48,45,100,69,28,30.32,30.25,30.20,10,10,7,5,0,,0.00,0,,15
2011-10-5,84,65,46,55,51,46,100,66,33,30.26,30.21,30.13,10,10,10,5,1,,0.00,1,,95
2011-10-6,86,70,53,61,56,54,100,66,33,30.22,30.18,30.15,10,10,10,9,1,,0.00,2,,139
2011-10-7,86,72,57,61,57,54,94,66,37,30.30,30.24,30.20,10,10,10,10,2,,0.00,0,,136
2011-10-8,84,70,55,61,57,54,94,65,37,30.30,30.25,30.19,10,10,10,10,2,,0.00,1,,137
2011-10-9,82,70,57,57,55,54,94,63,37,30.26,30.19,30.10,10,10,10,9,2,,0.00,0,,94
2011-10-10,80,68,57,64,60,55,94,75,54,30.14,30.07,29.99,10,10,10,7,2,,0.00,2,,89
2011-10-11,82,70,57,64,61,57,100,77,45,30.00,29.94,29.86,10,10,9,6,1,,0.00,2,,88
2011-10-12,73,65,57,64,61,57,100,91,65,29.90,29.82,29.72,10,8,0,8,2,,0.00,6,Fog-Rain,150
2011-10-13,78,69,60,63,58,52,100,75,41,29.81,29.72,29.67,10,10,3,18,7,,0.00,4,Rain,270
2011-10-14,80,64,48,54,48,45,100,57,28,29.96,29.90,29.83,10,10,10,14,4,,0.00,1,,265
2011-10-15,78,62,46,50,43,37,94,55,24,30.16,30.09,30.00,10,10,10,8,2,,0.00,0,,350
2011-10-16,87,69,51,59,51,45,82,57,33,30.09,30.02,29.92,10,10,10,13,3,,0.00,0,,192
2011-10-17,86,70,55,61,56,52,94,63,35,29.95,29.88,29.77,10,10,10,8,2,,0.00,2,,191
2011-10-18,64,56,48,57,49,45,100,90,77,29.85,29.77,29.66,10,9,2,20,6,31,0.00,7,Rain,338
2011-10-19,51,46,41,45,41,39,93,78,66,29.91,29.81,29.76,10,10,10,16,10,,0.00,6,,294
2011-10-20,60,51,42,39,37,36,81,63,42,30.03,29.97,29.89,10,10,10,15,9,,0.00,3,,264
2011-10-21,66,50,33,43,37,34,100,71,32,30.24,30.18,30.11,10,9,1,10,1,,0.00,0,,283
2011-10-22,75,56,37,48,41,36,100,67,33,30.21,30.15,30.07,10,10,10,6,1,,0.00,1,,206
2011-10-23,64,56,48,50,47,45,100,77,56,30.12,30.07,30.04,10,10,10,6,1,,0.00,3,,155
2011-10-24,75,58,42,57,51,43,100,87,53,30.24,30.18,30.12,10,5,0,7,1,,0.00,4,Fog,230
2011-10-25,80,61,42,55,50,43,100,70,32,30.22,30.14,30.01,10,7,0,9,2,,0.00,1,,159
2011-10-26,80,70,60,63,57,50,77,63,47,30.01,29.94,29.86,10,10,10,10,5,,0.00,3,,173
2011-10-27,71,60,48,61,50,45,100,86,60,30.10,29.98,29.84,10,9,4,14,8,,0.00,8,Rain,360
2011-10-28,57,48,39,46,42,37,100,79,51,30.18,30.12,30.05,10,9,4,16,7,,0.00,6,Rain,7
2011-10-29,62,47,32,41,33,27,100,67,26,30.25,30.19,30.16,10,9,0,10,2,,0.00,0,Fog,312
2011-10-30,64,48,33,37,35,32,100,63,32,30.26,30.19,30.13,10,10,9,9,2,,0.00,2,,163
2011-10-31,71,54,37,45,35,25,100,57,18,30.21,30.17,30.15,10,10,2,7,1,,0.00,1,,241